Time;durP1;ratioP1;P1;durP2;ratioP2;P2;SDS_P1;SDS_P2;PMS_P1;PMS_P2;Temp;Humidity;BMP_temperature;BMP_pressure;BME280_temperature;BME280_humidity;BME280_pressure;Samples;Min_cycle;Max_cycle;Signal;HPM_P1;HPM_P2
2023/04/21 00:00:50;;;;;;;15.87;8.40;;;8.10;84.10;;;;;;5019587;28;20282;-63
2023/04/21 00:03:19;;;;;;;15.57;8.27;;;8.00;83.00;;;;;;5042996;28;20659;-63
2023/04/21 00:05:47;;;;;;;15.10;8.60;;;8.00;85.00;;;;;;5038603;28;20448;-63
2023/04/21 00:08:14;;;;;;;16.43;8.90;;;8.00;86.80;;;;;;5011605;28;20212;-63
2023/04/21 00:10:40;;;;;;;18.87;8.57;;;8.00;85.90;;;;;;5039325;28;20728;-63
2023/04/21 00:13:09;;;;;;;11.63;8.13;;;8.00;86.70;;;;;;5033308;28;20736;-63
2023/04/21 00:15:36;;;;;;;11.53;8.27;;;8.00;87.70;;;;;;5036978;28;20357;-63
2023/04/21 00:18:03;;;;;;;15.43;9.40;;;7.90;88.90;;;;;;5026857;28;20236;-64
2023/04/21 00:20:30;;;;;;;16.37;9.40;;;7.90;90.10;;;;;;5031256;28;20655;-63
2023/04/21 00:22:58;;;;;;;18.23;9.57;;;7.90;90.70;;;;;;5039959;28;20206;-63
2023/04/21 00:25:25;;;;;;;15.80;9.83;;;7.90;91.10;;;;;;5006866;28;20588;-63
2023/04/21 00:27:52;;;;;;;18.67;10.23;;;8.00;90.90;;;;;;5028258;28;20206;-63
2023/04/21 00:30:20;;;;;;;17.90;10.03;;;8.00;90.20;;;;;;5037800;28;20843;-63
2023/04/21 00:32:47;;;;;;;21.33;10.80;;;8.00;90.80;;;;;;5028857;28;20715;-63
2023/04/21 00:35:14;;;;;;;17.23;11.10;;;8.00;90.30;;;;;;5030709;28;20208;-63
2023/04/21 00:37:41;;;;;;;23.73;11.33;;;8.00;90.10;;;;;;5043897;28;20398;-63
2023/04/21 00:40:09;;;;;;;18.37;9.67;;;8.00;90.10;;;;;;5011434;28;20225;-63
2023/04/21 00:42:36;;;;;;;16.23;10.30;;;8.00;90.00;;;;;;5030774;28;20819;-63
2023/04/21 00:45:03;;;;;;;19.07;11.70;;;7.90;90.10;;;;;;5048568;28;20201;-63
2023/04/21 00:47:31;;;;;;;17.00;11.53;;;7.90;90.10;;;;;;5032740;28;20317;-63
2023/04/21 00:49:58;;;;;;;20.47;11.10;;;7.90;90.30;;;;;;5045675;28;20595;-64
2023/04/21 00:52:26;;;;;;;18.63;10.87;;;7.80;90.30;;;;;;5034988;28;20677;-63
2023/04/21 00:54:53;;;;;;;21.83;10.70;;;7.80;91.90;;;;;;5013971;28;20217;-63
2023/04/21 00:57:20;;;;;;;17.80;10.43;;;7.80;92.60;;;;;;5039947;28;20783;-63
2023/04/21 00:59:48;;;;;;;16.67;10.47;;;7.80;93.30;;;;;;5032051;28;20197;-63
2023/04/21 01:02:16;;;;;;;17.80;10.37;;;7.70;93.60;;;;;;5040186;28;20985;-63
2023/04/21 01:04:44;;;;;;;20.80;10.10;;;7.70;94.30;;;;;;5027320;28;20429;-63
2023/04/21 01:07:11;;;;;;;17.60;11.00;;;7.70;94.80;;;;;;5039739;28;20734;-63
2023/04/21 01:09:38;;;;;;;16.23;9.87;;;7.70;95.10;;;;;;5041574;28;20233;-64
2023/04/21 01:12:07;;;;;;;20.40;10.30;;;7.70;95.50;;;;;;5005660;28;20232;-63
2023/04/21 01:14:34;;;;;;;17.77;9.50;;;7.70;95.60;;;;;;5033615;28;20252;-64
2023/04/21 01:17:02;;;;;;;16.03;9.17;;;7.70;95.60;;;;;;5049588;28;20197;-63
2023/04/21 01:19:33;;;;;;;19.13;10.20;;;7.70;95.10;;;;;;5025022;28;20300;-63
2023/04/21 01:22:01;;;;;;;15.67;9.53;;;7.70;94.90;;;;;;5030870;28;20817;-63
2023/04/21 01:24:36;;;;;;;19.07;9.80;;;7.70;95.00;;;;;;5039953;28;20624;-63
2023/04/21 01:27:03;;;;;;;17.07;9.67;;;7.70;94.70;;;;;;5014688;28;20735;-63
2023/04/21 01:29:33;;;;;;;15.60;9.70;;;7.60;94.40;;;;;;5028977;28;20333;-63
2023/04/21 01:32:05;;;;;;;19.73;9.67;;;7.60;95.00;;;;;;5040603;28;20484;-63
2023/04/21 01:34:32;;;;;;;16.77;9.17;;;7.60;95.20;;;;;;5027840;28;20418;-64
2023/04/21 01:36:58;;;;;;;17.37;9.20;;;7.50;95.00;;;;;;5038288;28;20212;-63
2023/04/21 01:39:27;;;;;;;14.93;9.40;;;7.60;95.80;;;;;;5036189;28;20795;-63
2023/04/21 01:41:54;;;;;;;18.20;9.70;;;7.50;96.10;;;;;;5010527;28;20674;-63
2023/04/21 01:44:21;;;;;;;14.23;9.27;;;7.60;95.90;;;;;;5033053;28;20203;-64
2023/04/21 01:46:48;;;;;;;19.53;9.07;;;7.50;95.60;;;;;;5025790;28;20201;-63
2023/04/21 01:49:14;;;;;;;14.27;8.37;;;7.50;95.90;;;;;;5040373;28;20201;-63
2023/04/21 01:51:41;;;;;;;14.37;9.23;;;7.60;96.30;;;;;;5030244;28;20209;-64
2023/04/21 01:54:08;;;;;;;13.87;9.17;;;7.60;95.70;;;;;;5043555;28;20526;-63
2023/04/21 01:56:36;;;;;;;14.80;8.77;;;7.60;95.90;;;;;;5041057;28;20682;-63
2023/04/21 01:59:03;;;;;;;12.23;8.40;;;7.60;95.60;;;;;;5011689;28;20209;-63
2023/04/21 02:01:30;;;;;;;13.70;8.23;;;7.60;95.30;;;;;;5023298;28;20278;-63
2023/04/21 02:03:56;;;;;;;16.83;8.57;;;7.70;95.20;;;;;;5042012;28;20342;-64
2023/04/21 02:06:23;;;;;;;16.87;8.17;;;7.70;94.90;;;;;;5023995;28;20200;-64
2023/04/21 02:08:50;;;;;;;17.17;8.47;;;7.70;94.20;;;;;;5036055;28;20197;-64
2023/04/21 02:11:17;;;;;;;16.27;7.83;;;7.70;94.20;;;;;;5043853;28;20225;-63
2023/04/21 02:13:45;;;;;;;13.87;8.00;;;7.70;94.50;;;;;;5010200;28;21039;-63
2023/04/21 02:16:12;;;;;;;13.93;8.03;;;7.80;93.30;;;;;;5045115;28;20653;-63
2023/04/21 02:18:40;;;;;;;14.63;8.57;;;7.90;92.50;;;;;;5029449;28;20599;-63
2023/04/21 02:21:07;;;;;;;16.23;8.30;;;7.90;91.60;;;;;;5024805;28;20589;-64
2023/04/21 02:23:33;;;;;;;14.80;8.40;;;8.00;90.70;;;;;;5034766;28;20345;-63
2023/04/21 02:26:00;;;;;;;12.27;7.77;;;8.00;90.00;;;;;;5044418;28;20196;-63
2023/04/21 02:28:27;;;;;;;12.10;7.23;;;8.00;88.50;;;;;;5008557;28;20204;-64
2023/04/21 02:30:55;;;;;;;12.40;7.13;;;8.10;86.20;;;;;;5038754;28;20247;-63
2023/04/21 02:33:22;;;;;;;12.70;7.87;;;8.10;83.60;;;;;;5022561;28;20215;-63
2023/04/21 02:35:49;;;;;;;13.27;7.70;;;8.10;82.10;;;;;;5039209;28;20212;-63
2023/04/21 02:38:15;;;;;;;14.93;7.13;;;8.10;79.80;;;;;;5028504;28;20209;-63
2023/04/21 02:40:42;;;;;;;15.13;8.17;;;8.10;78.10;;;;;;5037315;28;20197;-63
2023/04/21 02:43:09;;;;;;;10.77;7.33;;;8.10;78.00;;;;;;5040761;28;20571;-63
2023/04/21 02:45:37;;;;;;;15.17;7.43;;;8.20;76.80;;;;;;5004991;28;20403;-63
2023/04/21 02:48:06;;;;;;;14.00;7.33;;;8.20;76.00;;;;;;5026967;28;20296;-64
2023/04/21 02:50:33;;;;;;;12.00;7.10;;;8.20;74.60;;;;;;5037698;28;20329;-63
2023/04/21 02:52:59;;;;;;;14.00;7.77;;;8.20;72.90;;;;;;5027767;28;20629;-64
2023/04/21 02:55:26;;;;;;;13.60;7.53;;;8.20;72.50;;;;;;5046730;28;20197;-63
2023/04/21 02:57:53;;;;;;;13.63;7.73;;;8.10;72.80;;;;;;5034542;28;20192;-64
2023/04/21 03:00:20;;;;;;;11.87;7.47;;;8.10;72.80;;;;;;5003064;28;20200;-63
2023/04/21 03:02:47;;;;;;;13.43;7.97;;;8.00;74.20;;;;;;5039776;28;20205;-63
2023/04/21 03:05:16;;;;;;;14.93;7.70;;;8.10;75.50;;;;;;5023356;28;20266;-64
2023/04/21 03:07:44;;;;;;;10.43;7.03;;;8.00;75.00;;;;;;5037727;28;20197;-63
2023/04/21 03:10:11;;;;;;;13.93;7.80;;;8.10;74.50;;;;;;5022072;28;20229;-63
2023/04/21 03:12:38;;;;;;;13.80;7.17;;;8.10;73.00;;;;;;5044273;28;20216;-63
2023/04/21 03:15:06;;;;;;;12.83;7.40;;;8.10;72.80;;;;;;5040826;28;20196;-63
2023/04/21 03:17:32;;;;;;;14.57;7.27;;;8.10;73.00;;;;;;5004890;28;20323;-63
2023/04/21 03:19:59;;;;;;;10.23;6.73;;;8.10;72.50;;;;;;5027780;28;20693;-63
2023/04/21 03:22:27;;;;;;;12.77;7.77;;;8.10;72.90;;;;;;5027620;28;21832;-63
2023/04/21 03:24:54;;;;;;;17.43;7.67;;;8.00;74.40;;;;;;5017761;28;20211;-63
2023/04/21 03:27:21;;;;;;;13.07;7.30;;;8.00;74.10;;;;;;5039929;28;20405;-63
2023/04/21 03:29:47;;;;;;;15.63;7.20;;;8.10;73.80;;;;;;5034533;28;20212;-63
2023/04/21 03:32:14;;;;;;;10.90;7.07;;;8.00;71.90;;;;;;4997772;28;20221;-63
2023/04/21 03:34:41;;;;;;;15.30;7.10;;;8.00;72.30;;;;;;5024407;28;20414;-63
2023/04/21 03:37:08;;;;;;;13.03;7.13;;;8.00;70.40;;;;;;5039547;28;20239;-64
2023/04/21 03:39:36;;;;;;;12.00;6.57;;;8.00;73.40;;;;;;5023239;28;20661;-64
2023/04/21 03:42:03;;;;;;;13.20;7.47;;;8.00;74.00;;;;;;5025626;28;20209;-63
2023/04/21 03:44:30;;;;;;;12.40;6.90;;;8.00;74.00;;;;;;5031196;28;20815;-63
2023/04/21 03:46:57;;;;;;;13.13;7.87;;;8.00;75.00;;;;;;4982251;28;20212;-63
2023/04/21 03:49:24;;;;;;;15.30;7.23;;;8.00;74.50;;;;;;5020586;28;20207;-63
2023/04/21 03:51:51;;;;;;;10.00;7.20;;;8.10;71.80;;;;;;5032298;28;20232;-63
2023/04/21 03:54:17;;;;;;;11.77;6.30;;;8.10;69.50;;;;;;5027738;28;20197;-64
2023/04/21 03:56:45;;;;;;;11.53;6.57;;;8.10;68.30;;;;;;5016958;28;20678;-63
2023/04/21 03:59:12;;;;;;;9.27;7.10;;;8.10;67.50;;;;;;5036835;28;20744;-64
2023/04/21 04:01:41;;;;;;;10.63;7.20;;;8.10;67.10;;;;;;5002519;28;21451;-64
2023/04/21 04:04:07;;;;;;;11.23;6.90;;;8.10;66.90;;;;;;5043924;28;20196;-64
2023/04/21 04:06:34;;;;;;;13.37;7.40;;;8.10;66.00;;;;;;5030605;28;20201;-64
2023/04/21 04:09:03;;;;;;;13.40;7.10;;;8.00;66.70;;;;;;5034869;28;20739;-64
2023/04/21 04:11:30;;;;;;;10.20;6.63;;;8.10;65.50;;;;;;5021753;28;20532;-63
2023/04/21 04:13:58;;;;;;;11.90;7.47;;;8.10;63.40;;;;;;5038499;28;20220;-63
2023/04/21 04:16:27;;;;;;;16.40;8.23;;;8.10;62.70;;;;;;5004756;28;20207;-64
2023/04/21 04:18:54;;;;;;;16.00;7.60;;;8.10;62.30;;;;;;5035218;28;20224;-63
2023/04/21 04:21:21;;;;;;;11.77;6.60;;;8.10;61.90;;;;;;5026674;28;20282;-64
2023/04/21 04:23:50;;;;;;;11.03;6.93;;;8.10;62.70;;;;;;5047315;28;20601;-63
2023/04/21 04:26:17;;;;;;;18.37;7.57;;;8.10;63.60;;;;;;5032287;28;20192;-63
2023/04/21 04:28:44;;;;;;;10.93;7.60;;;8.00;62.80;;;;;;5034806;28;20284;-63
2023/04/21 04:31:13;;;;;;;14.37;7.87;;;8.00;64.60;;;;;;5025479;28;20225;-63
2023/04/21 04:33:42;;;;;;;11.23;7.47;;;8.00;65.10;;;;;;5005726;28;20559;-63
2023/04/21 04:36:09;;;;;;;14.43;7.17;;;7.90;67.30;;;;;;5024090;28;20220;-63
2023/04/21 04:38:36;;;;;;;12.77;7.53;;;7.90;68.70;;;;;;5046763;28;20270;-64
2023/04/21 04:41:03;;;;;;;10.50;7.47;;;7.90;71.50;;;;;;5042422;28;20205;-64
2023/04/21 04:43:32;;;;;;;16.00;7.57;;;7.90;71.60;;;;;;5029721;28;20232;-63
2023/04/21 04:45:59;;;;;;;14.00;7.17;;;7.90;72.60;;;;;;5033913;28;20629;-63
2023/04/21 04:48:27;;;;;;;13.13;6.90;;;7.90;73.80;;;;;;5002526;28;20752;-63
2023/04/21 04:50:54;;;;;;;14.10;7.17;;;7.90;72.60;;;;;;5021050;28;20276;-63
2023/04/21 04:53:20;;;;;;;9.23;6.67;;;7.90;73.00;;;;;;5021595;28;20218;-63
2023/04/21 04:55:47;;;;;;;14.50;7.37;;;7.90;74.00;;;;;;5031592;28;20202;-63
2023/04/21 04:58:14;;;;;;;12.23;6.77;;;7.90;73.70;;;;;;5017133;28;20568;-64
2023/04/21 05:00:41;;;;;;;9.27;6.80;;;7.90;71.90;;;;;;5031616;28;20201;-63
2023/04/21 05:03:08;;;;;;;13.30;7.43;;;8.00;72.50;;;;;;4993707;28;20278;-63
2023/04/21 05:05:36;;;;;;;11.07;7.03;;;7.90;72.20;;;;;;5031463;28;20643;-63
2023/04/21 05:08:03;;;;;;;10.40;6.63;;;8.00;69.40;;;;;;5013140;28;20611;-63
2023/04/21 05:10:29;;;;;;;12.40;6.60;;;8.00;66.70;;;;;;5026498;28;20251;-64
2023/04/21 05:12:56;;;;;;;9.60;6.90;;;8.10;65.60;;;;;;5019744;28;20221;-63
2023/04/21 05:15:23;;;;;;;14.37;6.37;;;8.10;63.80;;;;;;5013149;28;20852;-64
2023/04/21 05:17:50;;;;;;;18.30;7.07;;;8.10;63.60;;;;;;5025948;28;20236;-64
2023/04/21 05:20:17;;;;;;;10.07;7.30;;;8.20;60.40;;;;;;4993122;28;20236;-63
2023/04/21 05:22:45;;;;;;;12.63;7.10;;;8.20;58.60;;;;;;5034847;28;20208;-63
2023/04/21 05:25:13;;;;;;;13.97;6.93;;;8.20;59.30;;;;;;5034397;28;20240;-63
2023/04/21 05:27:40;;;;;;;14.63;7.63;;;8.20;60.40;;;;;;5043088;28;20619;-63
2023/04/21 05:30:08;;;;;;;12.30;7.00;;;8.20;59.10;;;;;;5025173;28;20346;-63
2023/04/21 05:32:35;;;;;;;11.67;6.97;;;8.20;59.10;;;;;;5023138;28;20819;-64
2023/04/21 05:35:02;;;;;;;12.57;7.30;;;8.10;59.50;;;;;;5011498;28;20604;-64
2023/04/21 05:37:29;;;;;;;11.63;7.47;;;8.30;58.70;;;;;;5040487;28;20279;-64
2023/04/21 05:39:57;;;;;;;11.30;7.53;;;8.30;56.30;;;;;;5020616;28;20209;-64
2023/04/21 05:42:24;;;;;;;14.93;10.27;;;8.40;55.90;;;;;;5041102;28;20208;-63
2023/04/21 05:44:51;;;;;;;12.03;9.03;;;8.40;54.30;;;;;;5039657;28;20248;-64
2023/04/21 05:47:18;;;;;;;13.60;7.50;;;8.40;52.60;;;;;;5033691;28;20225;-63
2023/04/21 05:49:48;;;;;;;8.40;5.87;;;8.50;49.50;;;;;;5010058;28;20624;-64
2023/04/21 05:52:16;;;;;;;11.50;7.10;;;8.50;47.90;;;;;;5044385;28;20225;-64
2023/04/21 05:54:43;;;;;;;8.73;7.07;;;8.60;47.20;;;;;;5021086;28;20231;-64
2023/04/21 05:57:11;;;;;;;12.03;6.67;;;8.70;46.90;;;;;;5041125;28;20845;-64
2023/04/21 05:59:37;;;;;;;14.20;7.00;;;8.70;46.90;;;;;;5048204;28;20208;-64
2023/04/21 06:02:04;;;;;;;12.77;7.33;;;8.70;46.20;;;;;;5031329;28;20791;-64
2023/04/21 06:04:31;;;;;;;16.17;7.83;;;8.80;43.80;;;;;;5047576;28;20197;-63
2023/04/21 06:06:58;;;;;;;13.90;7.37;;;8.80;42.10;;;;;;4985258;28;20217;-64
2023/04/21 06:09:25;;;;;;;15.40;7.57;;;8.90;40.70;;;;;;5034367;28;20201;-64
2023/04/21 06:11:52;;;;;;;12.90;7.10;;;8.90;39.90;;;;;;4999365;28;21103;-64
2023/04/21 06:14:20;;;;;;;14.37;7.87;;;9.00;41.10;;;;;;5017154;28;20225;-64
2023/04/21 06:16:46;;;;;;;12.43;6.40;;;9.00;39.70;;;;;;5007735;28;20210;-64
2023/04/21 06:19:13;;;;;;;15.90;7.00;;;9.10;39.80;;;;;;5013518;28;20226;-63
2023/04/21 06:21:40;;;;;;;10.95;6.57;;;9.20;34.50;;;;;;5009748;28;20209;-64
2023/04/21 06:24:08;;;;;;;16.10;7.15;;;9.30;32.00;;;;;;5024571;28;20216;-63
2023/04/21 06:26:34;;;;;;;12.40;6.97;;;9.30;32.50;;;;;;5010414;28;20885;-63
2023/04/21 06:29:01;;;;;;;11.48;6.40;;;9.40;29.90;;;;;;5028674;28;20693;-64
2023/04/21 06:31:29;;;;;;;11.68;6.55;;;9.40;28.10;;;;;;5015164;28;22646;-64
2023/04/21 06:33:56;;;;;;;9.65;6.00;;;9.50;25.40;;;;;;5019304;28;20201;-64
2023/04/21 06:36:23;;;;;;;14.50;7.38;;;9.50;28.10;;;;;;5041239;28;20469;-64
2023/04/21 06:38:50;;;;;;;10.18;6.70;;;9.60;27.00;;;;;;5006523;28;20215;-64
2023/04/21 06:41:18;;;;;;;13.70;6.90;;;9.60;27.10;;;;;;5026855;28;20232;-64
2023/04/21 06:43:44;;;;;;;13.00;7.18;;;9.80;26.30;;;;;;5023375;28;20220;-64
2023/04/21 06:46:11;;;;;;;10.43;6.80;;;9.80;20.10;;;;;;5025586;28;20205;-64
2023/04/21 06:48:39;;;;;;;11.67;7.37;;;9.90;18.90;;;;;;5017590;28;20197;-63
2023/04/21 06:51:06;;;;;;;10.45;6.32;;;9.90;12.10;;;;;;5042557;28;20225;-64
2023/04/21 06:53:33;;;;;;;12.43;6.45;;;10.00;8.10;;;;;;5010299;28;20219;-64
2023/04/21 06:55:59;;;;;;;10.30;6.50;;;10.00;5.80;;;;;;5046009;28;20215;-63
2023/04/21 06:58:26;;;;;;;9.73;6.40;;;10.10;4.80;;;;;;5031325;28;20204;-64
2023/04/21 07:00:53;;;;;;;11.25;6.47;;;10.10;7.60;;;;;;5046353;28;20327;-64
2023/04/21 07:03:20;;;;;;;11.93;7.20;;;10.20;1.00;;;;;;5013660;28;20575;-64
2023/04/21 07:05:48;;;;;;;14.82;7.28;;;10.20;1.00;;;;;;5048402;28;20224;-63
2023/04/21 07:08:15;;;;;;;18.33;7.13;;;10.30;1.00;;;;;;5009616;28;20209;-63
2023/04/21 07:10:41;;;;;;;12.65;6.75;;;10.40;1.00;;;;;;5043392;28;20197;-63
2023/04/21 07:13:08;;;;;;;11.48;6.78;;;10.40;1.00;;;;;;5004665;28;20240;-64
2023/04/21 07:15:35;;;;;;;9.52;6.60;;;10.50;1.00;;;;;;5039018;28;20643;-64
2023/04/21 07:18:02;;;;;;;9.82;6.75;;;10.50;1.00;;;;;;5026544;28;20221;-64
2023/04/21 07:20:28;;;;;;;11.90;6.63;;;10.60;1.00;;;;;;5031561;28;21573;-63
2023/04/21 07:22:57;;;;;;;17.02;6.57;;;10.60;1.00;;;;;;5005824;28;20429;-64
2023/04/21 07:25:23;;;;;;;11.98;6.97;;;10.70;1.00;;;;;;5043582;28;20205;-64
2023/04/21 07:27:50;;;;;;;14.45;6.63;;;10.80;1.00;;;;;;5027067;28;20722;-64
2023/04/21 07:30:17;;;;;;;10.48;6.50;;;10.90;1.00;;;;;;5042832;28;20197;-64
2023/04/21 07:32:45;;;;;;;12.68;6.65;;;11.00;1.00;;;;;;5025255;28;20235;-64
2023/04/21 07:35:11;;;;;;;10.05;6.70;;;11.00;1.00;;;;;;5035337;28;20243;-64
2023/04/21 07:37:39;;;;;;;13.20;7.25;;;11.10;1.00;;;;;;5034778;28;20205;-64
2023/04/21 07:40:08;;;;;;;12.00;6.60;;;11.20;1.00;;;;;;5011391;28;20236;-64
2023/04/21 07:42:35;;;;;;;14.13;6.90;;;11.30;1.00;;;;;;5031982;28;20209;-64
2023/04/21 07:45:02;;;;;;;13.95;7.05;;;11.20;1.00;;;;;;5037220;28;20676;-64
2023/04/21 07:47:29;;;;;;;14.80;6.50;;;11.40;1.00;;;;;;5039444;28;20197;-64
2023/04/21 07:49:56;;;;;;;10.88;6.40;;;11.50;1.00;;;;;;5018093;28;20208;-64
2023/04/21 07:52:23;;;;;;;9.13;6.15;;;11.40;1.00;;;;;;5040930;28;20235;-64
2023/04/21 07:54:50;;;;;;;7.18;5.95;;;11.70;1.90;;;;;;5003750;28;20949;-64
2023/04/21 07:57:18;;;;;;;13.10;6.10;;;11.70;1.00;;;;;;5024779;28;20289;-64
2023/04/21 07:59:45;;;;;;;9.75;7.00;;;11.70;1.00;;;;;;5029514;28;20450;-64
2023/04/21 08:02:12;;;;;;;8.88;6.18;;;11.80;1.00;;;;;;5041418;28;21210;-64
2023/04/21 08:04:39;;;;;;;11.55;6.47;;;11.90;1.00;;;;;;5028560;28;20193;-64
2023/04/21 08:07:05;;;;;;;10.85;6.93;;;11.90;1.00;;;;;;5028817;28;20279;-64
2023/04/21 08:09:32;;;;;;;8.27;6.30;;;12.10;99.90;;;;;;5039441;28;20196;-64
2023/04/21 08:11:59;;;;;;;9.80;6.10;;;12.30;99.90;;;;;;4987090;28;20566;-64
2023/04/21 08:14:27;;;;;;;12.32;6.47;;;12.30;99.90;;;;;;5031459;28;20197;-64
2023/04/21 08:16:54;;;;;;;11.95;6.75;;;12.30;99.90;;;;;;5036119;28;20196;-64
2023/04/21 08:19:21;;;;;;;8.35;6.05;;;12.30;99.90;;;;;;5012841;28;20225;-64
2023/04/21 08:21:48;;;;;;;11.73;6.47;;;12.40;99.90;;;;;;5023820;28;20205;-64
2023/04/21 08:24:14;;;;;;;16.40;6.78;;;12.50;99.90;;;;;;5041963;28;20201;-64
2023/04/21 08:26:41;;;;;;;14.43;6.75;;;12.60;99.90;;;;;;5002990;28;20201;-64
2023/04/21 08:29:09;;;;;;;8.93;5.68;;;12.70;99.90;;;;;;5022636;28;20205;-64
2023/04/21 08:31:37;;;;;;;12.27;6.47;;;12.80;99.90;;;;;;5023494;28;20396;-64
2023/04/21 08:34:04;;;;;;;9.88;6.25;;;12.90;99.90;;;;;;5043996;28;20205;-64
2023/04/21 08:36:31;;;;;;;10.27;5.70;;;12.90;99.90;;;;;;5012328;28;20198;-64
2023/04/21 08:38:58;;;;;;;10.45;7.03;;;13.00;99.90;;;;;;5042929;28;20397;-64
2023/04/21 08:41:26;;;;;;;9.77;6.57;;;13.20;99.90;;;;;;5032894;28;20204;-65
2023/04/21 08:43:53;;;;;;;8.32;5.85;;;13.20;99.90;;;;;;4993293;28;20645;-65
2023/04/21 08:46:20;;;;;;;11.30;5.93;;;13.20;99.90;;;;;;5031500;28;20898;-64
2023/04/21 08:48:48;;;;;;;9.02;5.90;;;13.30;99.90;;;;;;5039530;28;20433;-64
2023/04/21 08:51:21;;;;;;;9.23;6.28;;;13.40;99.90;;;;;;5018938;28;20225;-64
2023/04/21 08:53:48;;;;;;;9.30;5.88;;;13.50;99.90;;;;;;5026715;28;20201;-64
2023/04/21 08:56:15;;;;;;;10.35;6.25;;;13.50;99.90;;;;;;5043734;28;20197;-64
2023/04/21 08:58:42;;;;;;;9.05;6.05;;;13.50;99.90;;;;;;5013027;28;20425;-64
2023/04/21 09:01:08;;;;;;;11.60;6.63;;;13.60;99.90;;;;;;5037419;28;20211;-64
2023/04/21 09:03:35;;;;;;;19.80;6.10;;;13.80;99.90;;;;;;5046059;28;20197;-64
2023/04/21 09:06:06;;;;;;;8.82;6.32;;;13.90;99.90;;;;;;5031337;28;20212;-64
2023/04/21 09:08:35;;;;;;;10.38;6.38;;;13.90;99.90;;;;;;5020415;28;20685;-64
2023/04/21 09:11:02;;;;;;;12.57;5.70;;;13.90;99.90;;;;;;5030087;28;20209;-64
2023/04/21 09:13:33;;;;;;;6.78;5.63;;;14.00;99.90;;;;;;5031072;28;20226;-64
2023/04/21 09:16:01;;;;;;;15.20;6.18;;;14.10;99.90;;;;;;4999551;28;20209;-65
2023/04/21 09:18:34;;;;;;;12.50;6.22;;;14.20;99.90;;;;;;5040544;28;20239;-64
2023/04/21 09:21:09;;;;;;;11.57;6.82;;;14.30;99.90;;;;;;5041701;28;20197;-64
2023/04/21 09:23:41;;;;;;;8.07;5.85;;;14.40;99.90;;;;;;5019132;28;20200;-65
2023/04/21 09:26:09;;;;;;;13.00;6.10;;;14.40;99.90;;;;;;5043307;28;20189;-64
2023/04/21 09:28:36;;;;;;;18.45;6.18;;;14.50;99.90;;;;;;5014066;28;20205;-64
2023/04/21 09:31:03;;;;;;;12.48;6.43;;;14.50;99.90;;;;;;5027564;28;20201;-64
2023/04/21 09:33:34;;;;;;;10.55;5.95;;;14.60;99.90;;;;;;5019953;28;20622;-64
2023/04/21 09:36:02;;;;;;;10.25;6.18;;;14.70;99.90;;;;;;5040660;28;20334;-64
2023/04/21 09:38:30;;;;;;;8.13;5.78;;;14.70;99.90;;;;;;5029457;28;20460;-64
2023/04/21 09:40:58;;;;;;;8.55;6.38;;;14.70;99.90;;;;;;5026929;28;20611;-64
2023/04/21 09:43:24;;;;;;;8.50;6.47;;;14.80;99.90;;;;;;5044652;28;20762;-64
2023/04/21 09:45:52;;;;;;;11.68;6.20;;;14.90;99.90;;;;;;5001656;28;20219;-63
2023/04/21 09:48:20;;;;;;;12.15;5.88;;;15.00;99.90;;;;;;5025273;28;20205;-65
2023/04/21 09:50:47;;;;;;;9.05;5.70;;;15.00;99.90;;;;;;5006983;28;20216;-64
2023/04/21 09:53:16;;;;;;;9.43;5.72;;;15.10;99.90;;;;;;5017628;28;20232;-64
2023/04/21 09:55:47;;;;;;;9.30;6.05;;;15.10;99.90;;;;;;5004098;28;20223;-64
2023/04/21 09:58:19;;;;;;;10.25;5.88;;;15.20;99.90;;;;;;5027108;28;21448;-64
2023/04/21 10:00:47;;;;;;;9.65;5.55;;;15.30;99.90;;;;;;5006760;28;20209;-64
2023/04/21 10:03:16;;;;;;;12.98;6.00;;;15.30;99.90;;;;;;5028048;28;20209;-64
2023/04/21 10:05:43;;;;;;;7.75;5.10;;;15.50;99.90;;;;;;5043021;28;20212;-65
2023/04/21 10:08:11;;;;;;;8.73;5.88;;;15.50;99.90;;;;;;5044670;28;20200;-64
2023/04/21 10:10:38;;;;;;;11.75;6.32;;;15.60;99.90;;;;;;5017251;28;20212;-64
2023/04/21 10:13:07;;;;;;;9.90;5.50;;;15.70;99.90;;;;;;5034646;28;20239;-64
2023/04/21 10:15:38;;;;;;;9.52;5.00;;;15.60;99.90;;;;;;5011878;28;20243;-64
2023/04/21 10:18:13;;;;;;;8.15;4.95;;;15.70;99.90;;;;;;5023152;28;20318;-64
2023/04/21 10:20:55;;;;;;;11.20;5.25;;;15.80;99.90;;;;;;5040892;28;20243;-64
2023/04/21 10:23:35;;;;;;;12.85;5.25;;;15.80;99.90;;;;;;5034550;28;20345;-64
2023/04/21 10:26:08;;;;;;;7.43;4.97;;;15.80;99.90;;;;;;5022375;28;20591;-65
2023/04/21 10:28:53;;;;;;;8.13;5.70;;;15.80;99.90;;;;;;5026544;28;20211;-65
2023/04/21 10:31:31;;;;;;;8.85;5.70;;;15.90;99.90;;;;;;4999243;28;20235;-64
2023/04/21 10:34:18;;;;;;;7.15;5.15;;;16.00;99.90;;;;;;5028507;28;20231;-64
2023/04/21 10:37:16;;;;;;;7.72;5.00;;;16.00;99.90;;;;;;5041769;28;20217;-64
2023/04/21 10:39:54;;;;;;;10.18;5.13;;;16.10;99.90;;;;;;5018182;28;20579;-64
2023/04/21 10:42:27;;;;;;;10.82;5.28;;;16.20;99.90;;;;;;5023954;28;20750;-64
2023/04/21 10:45:24;;;;;;;12.77;6.00;;;16.20;99.90;;;;;;5038294;28;20228;-65
2023/04/21 10:47:53;;;;;;;14.18;5.00;;;16.10;99.90;;;;;;4945354;28;20686;-64
2023/04/21 10:50:22;;;;;;;8.52;4.82;;;16.20;99.90;;;;;;5004230;28;20201;-65
2023/04/21 10:52:55;;;;;;;15.15;5.60;;;16.10;99.90;;;;;;5044278;28;20316;-64
2023/04/21 10:55:22;;;;;;;9.88;5.40;;;16.20;99.90;;;;;;5023066;28;20311;-64
2023/04/21 10:57:49;;;;;;;6.90;5.50;;;16.30;99.90;;;;;;5027057;28;20212;-65
2023/04/21 11:00:19;;;;;;;9.95;5.93;;;16.40;99.90;;;;;;4995518;28;20228;-65
2023/04/21 11:02:56;;;;;;;7.65;5.45;;;16.50;99.90;;;;;;4992866;28;20306;-64
2023/04/21 11:05:29;;;;;;;8.55;5.45;;;16.60;99.90;;;;;;4996242;28;20670;-64
2023/04/21 11:08:04;;;;;;;9.43;5.95;;;16.60;99.90;;;;;;5023866;28;20216;-64
2023/04/21 11:10:41;;;;;;;8.00;5.10;;;16.70;99.90;;;;;;5023157;28;20207;-64
2023/04/21 11:13:08;;;;;;;9.35;5.80;;;16.80;99.90;;;;;;5016068;28;20220;-64
2023/04/21 11:15:34;;;;;;;11.05;5.80;;;16.80;99.90;;;;;;5002722;28;20434;-65
2023/04/21 11:18:03;;;;;;;9.90;5.72;;;16.80;99.90;;;;;;4993299;28;20423;-64
2023/04/21 11:20:30;;;;;;;6.78;5.18;;;17.00;99.90;;;;;;4999560;28;20833;-65
2023/04/21 11:22:57;;;;;;;11.57;5.78;;;16.90;99.90;;;;;;5025646;28;20228;-64
2023/04/21 11:25:24;;;;;;;6.65;4.57;;;17.00;99.90;;;;;;5029241;28;20590;-64
2023/04/21 11:27:55;;;;;;;8.80;5.60;;;17.10;99.90;;;;;;5014687;28;20208;-64
2023/04/21 11:30:22;;;;;;;12.65;5.25;;;17.10;99.90;;;;;;5015366;28;22338;-65
2023/04/21 11:32:54;;;;;;;9.15;5.38;;;17.10;99.90;;;;;;4980869;28;20608;-64
2023/04/21 11:35:22;;;;;;;7.43;4.30;;;17.10;99.90;;;;;;5033674;28;20320;-65
2023/04/21 11:37:50;;;;;;;9.45;4.78;;;17.20;99.90;;;;;;5024941;28;20220;-64
2023/04/21 11:40:17;;;;;;;10.15;4.93;;;17.20;99.90;;;;;;5019561;28;20232;-65
2023/04/21 11:42:44;;;;;;;8.07;5.10;;;17.40;99.90;;;;;;5021256;28;20230;-64
2023/04/21 11:45:18;;;;;;;6.22;4.85;;;17.40;99.90;;;;;;5024446;28;20222;-64
2023/04/21 11:47:44;;;;;;;8.68;5.50;;;17.50;99.90;;;;;;5016637;28;20246;-64
2023/04/21 11:50:11;;;;;;;10.23;4.97;;;17.50;99.90;;;;;;5002017;28;20224;-64
2023/04/21 11:52:41;;;;;;;5.93;4.35;;;17.60;99.90;;;;;;5013256;28;20673;-64
2023/04/21 11:55:14;;;;;;;5.13;4.10;;;17.50;99.90;;;;;;5038392;28;20573;-64
2023/04/21 11:57:41;;;;;;;12.85;4.97;;;17.50;99.90;;;;;;5022136;28;20207;-64
2023/04/21 12:00:12;;;;;;;9.25;5.38;;;17.40;99.90;;;;;;5018234;28;20216;-64
2023/04/21 12:02:38;;;;;;;5.63;4.57;;;17.50;99.90;;;;;;5013712;28;20232;-64
2023/04/21 12:05:06;;;;;;;11.57;4.43;;;17.50;99.90;;;;;;4996051;28;20227;-64
2023/04/21 12:07:34;;;;;;;8.07;4.57;;;17.50;99.90;;;;;;4994286;28;20849;-65
2023/04/21 12:10:10;;;;;;;7.85;4.75;;;17.50;99.90;;;;;;5036570;28;20208;-64
2023/04/21 12:12:38;;;;;;;5.20;4.70;;;17.50;99.90;;;;;;5000332;28;20783;-64
2023/04/21 12:15:06;;;;;;;7.32;5.28;;;17.50;99.90;;;;;;5027837;28;21835;-64
2023/04/21 12:17:38;;;;;;;5.85;4.65;;;17.50;99.90;;;;;;4995161;28;20756;-64
2023/04/21 12:20:06;;;;;;;10.55;4.95;;;17.60;99.90;;;;;;5037882;28;20575;-64
2023/04/21 12:22:33;;;;;;;6.32;4.72;;;17.70;99.90;;;;;;4984136;28;23330;-64
2023/04/21 12:24:59;;;;;;;6.05;4.75;;;17.70;99.90;;;;;;5012754;28;20228;-65
2023/04/21 12:27:28;;;;;;;9.18;5.40;;;17.70;99.90;;;;;;5009929;28;20242;-65
2023/04/21 12:29:55;;;;;;;9.25;5.13;;;17.90;99.90;;;;;;5029695;28;20215;-64
2023/04/21 12:32:23;;;;;;;6.85;5.43;;;17.90;99.90;;;;;;5020340;28;20205;-64
2023/04/21 12:34:49;;;;;;;8.40;5.28;;;17.80;99.90;;;;;;5026894;28;20362;-64
2023/04/21 12:37:16;;;;;;;6.85;5.32;;;17.90;99.90;;;;;;4998798;28;20211;-65
2023/04/21 12:39:43;;;;;;;7.18;5.00;;;18.00;99.90;;;;;;5015684;28;20196;-64
2023/04/21 12:42:10;;;;;;;10.20;5.20;;;17.80;99.90;;;;;;5015803;28;20235;-65
2023/04/21 12:44:39;;;;;;;10.77;5.30;;;17.80;99.90;;;;;;5032928;28;20309;-64
2023/04/21 12:47:06;;;;;;;10.55;4.75;;;17.80;99.90;;;;;;5021438;28;20295;-64
2023/04/21 12:49:33;;;;;;;6.90;5.18;;;17.90;99.90;;;;;;5021759;28;20662;-64